Wetterdaten: Woche 29.09.08 - 05.10.08 (KW40)
Datum Zeit Temperatur Luftfeuchte Luftdruck Niederschlag Windrichtung Wind
29.09.2008 00:00 3,7 C 93 % 1023,1 hPa 0,0 l/m N 0,8 km/h (0 Bft)
29.09.2008 01:00 3,7 C 95 % 1022,7 hPa 0,0 l/m N 0,3 km/h (0 Bft)
29.09.2008 02:00 3,3 C 95 % 1022,4 hPa 0,0 l/m N 0,0 km/h (0 Bft)
29.09.2008 03:00 3,1 C 96 % 1021,8 hPa 0,0 l/m N 0,0 km/h (0 Bft)
29.09.2008 04:00 3,4 C 97 % 1021,3 hPa 0,0 l/m N 0,5 km/h (0 Bft)
29.09.2008 05:00 4,6 C 98 % 1021,2 hPa 0,0 l/m SW 4,7 km/h (1 Bft)
29.09.2008 06:00 5,4 C 98 % 1020,8 hPa 0,0 l/m SW 6,5 km/h (2 Bft)
29.09.2008 07:00 5,4 C 98 % 1020,5 hPa 0,0 l/m SW 4,8 km/h (1 Bft)
29.09.2008 08:00 5,4 C 98 % 1020,5 hPa 0,0 l/m SW 6,9 km/h (2 Bft)
29.09.2008 09:00 6,2 C 98 % 1020,5 hPa 0,0 l/m SW 7,6 km/h (2 Bft)
29.09.2008 10:00 7,8 C 98 % 1020,2 hPa 0,0 l/m SW 9,9 km/h (2 Bft)
29.09.2008 11:00 9,0 C 95 % 1019,7 hPa 0,0 l/m S 12,2 km/h (2 Bft)
29.09.2008 12:00 10,3 C 92 % 1018,9 hPa 0,0 l/m S 10,9 km/h (2 Bft)
29.09.2008 13:00 13,0 C 84 % 1017,9 hPa 0,0 l/m SW 10,9 km/h (2 Bft)
29.09.2008 14:00 14,7 C 74 % 1017,1 hPa 0,0 l/m SW 10,6 km/h (2 Bft)
29.09.2008 15:00 15,2 C 66 % 1016,2 hPa 0,0 l/m SW 14,9 km/h (3 Bft)
29.09.2008 16:00 14,8 C 70 % 1015,8 hPa 0,0 l/m W 12,8 km/h (3 Bft)
29.09.2008 17:00 14,2 C 73 % 1015,6 hPa 0,0 l/m W 13,1 km/h (3 Bft)
29.09.2008 18:00 13,3 C 79 % 1015,7 hPa 0,0 l/m W 5,9 km/h (2 Bft)
29.09.2008 19:00 12,8 C 79 % 1016,2 hPa 0,0 l/m W 9,9 km/h (2 Bft)
29.09.2008 20:00 12,3 C 80 % 1016,5 hPa 0,0 l/m W 5,1 km/h (1 Bft)
29.09.2008 21:00 11,0 C 84 % 1016,7 hPa 0,0 l/m W 4,0 km/h (1 Bft)
29.09.2008 22:00 9,9 C 88 % 1016,9 hPa 0,0 l/m SW 3,1 km/h (1 Bft)
29.09.2008 23:00 9,6 C 88 % 1016,8 hPa 0,0 l/m W 6,5 km/h (2 Bft)
30.09.2008 00:00 9,3 C 87 % 1016,7 hPa 0,0 l/m W 4,3 km/h (1 Bft)
30.09.2008 01:00 9,1 C 89 % 1016,5 hPa 0,0 l/m W 7,2 km/h (2 Bft)
30.09.2008 02:00 9,6 C 87 % 1016,4 hPa 0,0 l/m SW 7,1 km/h (2 Bft)
30.09.2008 03:00 9,6 C 86 % 1015,9 hPa 0,0 l/m SW 8,0 km/h (2 Bft)
30.09.2008 04:00 9,5 C 87 % 1015,4 hPa 0,0 l/m W 6,3 km/h (2 Bft)
30.09.2008 05:00 9,2 C 88 % 1015,3 hPa 0,0 l/m W 5,1 km/h (1 Bft)
30.09.2008 06:00 8,8 C 89 % 1015,0 hPa 0,0 l/m W 8,0 km/h (2 Bft)
30.09.2008 07:00 8,6 C 91 % 1014,9 hPa 0,0 l/m W 9,0 km/h (2 Bft)
30.09.2008 08:00 8,9 C 92 % 1014,7 hPa 0,0 l/m SW 10,1 km/h (2 Bft)
30.09.2008 09:00 10,1 C 90 % 1014,5 hPa 0,0 l/m SW 12,9 km/h (3 Bft)
30.09.2008 10:00 12,2 C 80 % 1014,3 hPa 0,0 l/m W 20,1 km/h (4 Bft)
30.09.2008 11:00 13,5 C 70 % 1014,0 hPa 0,0 l/m W 24,1 km/h (4 Bft)
30.09.2008 12:00 13,3 C 66 % 1013,7 hPa 0,0 l/m W 20,4 km/h (4 Bft)
30.09.2008 13:00 12,9 C 68 % 1013,3 hPa 0,0 l/m W 18,6 km/h (3 Bft)
30.09.2008 14:00 12,9 C 67 % 1012,7 hPa 0,0 l/m W 22,0 km/h (4 Bft)
30.09.2008 15:00 12,8 C 67 % 1012,4 hPa 0,0 l/m W 22,3 km/h (4 Bft)
30.09.2008 16:00 12,7 C 67 % 1011,8 hPa 0,0 l/m W 19,8 km/h (4 Bft)
30.09.2008 17:00 12,2 C 70 % 1011,3 hPa 0,0 l/m W-SW 20,5 km/h (4 Bft)
30.09.2008 18:00 11,0 C 82 % 1011,2 hPa 0,0 l/m W 12,9 km/h (3 Bft)
30.09.2008 19:00 10,5 C 86 % 1010,9 hPa 0,0 l/m W 15,6 km/h (3 Bft)
30.09.2008 20:00 10,1 C 88 % 1010,8 hPa 0,2 l/m W 18,2 km/h (3 Bft)
30.09.2008 21:00 9,9 C 89 % 1010,7 hPa 0,2 l/m W-SW 19,7 km/h (3 Bft)
30.09.2008 22:00 9,8 C 88 % 1010,8 hPa 0,0 l/m W 22,8 km/h (4 Bft)
30.09.2008 23:00 9,6 C 88 % 1010,6 hPa 0,2 l/m W 19,3 km/h (3 Bft)
01.10.2008 00:00 9,4 C 90 % 1010,5 hPa 0,0 l/m SW 15,3 km/h (3 Bft)
01.10.2008 01:00 9,3 C 86 % 1010,1 hPa 0,0 l/m W 24,0 km/h (4 Bft)
01.10.2008 02:00 9,4 C 82 % 1009,9 hPa 0,0 l/m W 25,7 km/h (4 Bft)
01.10.2008 03:00 9,5 C 84 % 1009,8 hPa 0,0 l/m W-SW 25,5 km/h (4 Bft)
01.10.2008 04:00 9,3 C 85 % 1009,2 hPa 0,0 l/m W-SW 25,3 km/h (4 Bft)
01.10.2008 05:00 9,5 C 83 % 1008,8 hPa 0,0 l/m W 27,3 km/h (4 Bft)
01.10.2008 06:00 9,6 C 84 % 1008,6 hPa 0,0 l/m SW 21,0 km/h (4 Bft)
01.10.2008 07:00 9,2 C 87 % 1008,4 hPa 0,0 l/m W 19,3 km/h (3 Bft)
01.10.2008 08:00 9,5 C 85 % 1008,5 hPa 0,2 l/m W 22,5 km/h (4 Bft)
01.10.2008 09:00 10,4 C 81 % 1008,6 hPa 0,0 l/m W 27,6 km/h (4 Bft)
01.10.2008 10:00 11,8 C 76 % 1008,7 hPa 0,0 l/m W-SW 42,9 km/h (6 Bft)
01.10.2008 11:00 12,3 C 74 % 1008,9 hPa 0,0 l/m W 37,8 km/h (5 Bft)
01.10.2008 12:00 13,1 C 71 % 1008,9 hPa 0,0 l/m W 37,5 km/h (5 Bft)
01.10.2008 13:00 14,3 C 65 % 1008,4 hPa 0,0 l/m W 43,3 km/h (6 Bft)
01.10.2008 14:00 13,6 C 66 % 1008,2 hPa 0,0 l/m W 42,0 km/h (6 Bft)
01.10.2008 15:00 14,1 C 67 % 1007,8 hPa 0,0 l/m W 33,4 km/h (5 Bft)
01.10.2008 16:00 14,3 C 68 % 1007,4 hPa 0,0 l/m W 23,1 km/h (4 Bft)
01.10.2008 17:00 14,1 C 68 % 1007,1 hPa 0,0 l/m W-SW 33,7 km/h (5 Bft)
01.10.2008 18:00 13,3 C 68 % 1007,1 hPa 0,0 l/m W 27,5 km/h (4 Bft)
01.10.2008 19:00 12,4 C 72 % 1007,3 hPa 0,0 l/m W 24,9 km/h (4 Bft)
01.10.2008 20:00 12,0 C 74 % 1007,7 hPa 0,0 l/m W 23,4 km/h (4 Bft)
01.10.2008 21:00 12,1 C 73 % 1008,1 hPa 0,0 l/m W 26,9 km/h (4 Bft)
01.10.2008 22:00 12,3 C 73 % 1008,1 hPa 0,0 l/m W-SW 23,1 km/h (4 Bft)
01.10.2008 23:00 11,9 C 75 % 1008,0 hPa 0,0 l/m W 19,4 km/h (3 Bft)
02.10.2008 00:00 11,2 C 78 % 1007,8 hPa 0,0 l/m SW 13,3 km/h (3 Bft)
02.10.2008 01:00 10,9 C 81 % 1007,9 hPa 0,0 l/m W 22,4 km/h (4 Bft)
02.10.2008 02:00 11,0 C 82 % 1007,7 hPa 0,0 l/m W 22,1 km/h (4 Bft)
02.10.2008 03:00 10,6 C 84 % 1006,9 hPa 0,0 l/m SW 19,3 km/h (3 Bft)
02.10.2008 04:00 10,4 C 85 % 1006,7 hPa 0,0 l/m SW 16,5 km/h (3 Bft)
02.10.2008 05:00 10,5 C 84 % 1006,6 hPa 0,0 l/m W-SW 16,1 km/h (3 Bft)
02.10.2008 06:00 10,4 C 82 % 1006,5 hPa 0,0 l/m W 21,2 km/h (4 Bft)
02.10.2008 07:00 10,2 C 82 % 1006,3 hPa 0,0 l/m W 22,3 km/h (4 Bft)
02.10.2008 08:00 10,4 C 81 % 1006,3 hPa 0,0 l/m W 22,5 km/h (4 Bft)
02.10.2008 09:00 11,3 C 77 % 1006,6 hPa 0,0 l/m W-NW 28,4 km/h (4 Bft)
02.10.2008 10:00 13,2 C 69 % 1006,8 hPa 0,0 l/m W-SW 26,8 km/h (4 Bft)
02.10.2008 11:00 13,0 C 69 % 1007,0 hPa 0,0 l/m W 29,1 km/h (5 Bft)
02.10.2008 12:00 12,9 C 69 % 1007,2 hPa 0,0 l/m W-NW 27,8 km/h (4 Bft)
02.10.2008 13:00 14,1 C 59 % 1006,7 hPa 0,0 l/m W-NW 29,8 km/h (5 Bft)
02.10.2008 14:00 13,5 C 59 % 1006,3 hPa 0,0 l/m W-NW 32,5 km/h (5 Bft)
02.10.2008 15:00 13,1 C 62 % 1006,2 hPa 0,0 l/m W-NW 26,8 km/h (4 Bft)
02.10.2008 16:00 12,6 C 65 % 1006,1 hPa 0,0 l/m W 18,4 km/h (3 Bft)
02.10.2008 17:00 12,3 C 65 % 1006,0 hPa 0,0 l/m W 15,3 km/h (3 Bft)
02.10.2008 18:00 11,6 C 68 % 1006,1 hPa 0,0 l/m W 9,3 km/h (2 Bft)
02.10.2008 19:00 10,7 C 72 % 1006,4 hPa 0,0 l/m W 7,6 km/h (2 Bft)
02.10.2008 20:00 9,8 C 72 % 1006,6 hPa 0,0 l/m W 16,1 km/h (3 Bft)
02.10.2008 21:00 8,6 C 77 % 1007,1 hPa 0,0 l/m SW 12,8 km/h (3 Bft)
02.10.2008 22:00 7,9 C 81 % 1007,4 hPa 0,0 l/m SW 10,6 km/h (2 Bft)
02.10.2008 23:00 7,8 C 83 % 1007,2 hPa 0,0 l/m SW 8,9 km/h (2 Bft)
03.10.2008 00:00 7,7 C 83 % 1007,1 hPa 0,0 l/m SW 4,8 km/h (1 Bft)
03.10.2008 01:00 7,5 C 84 % 1007,2 hPa 0,0 l/m W-SW 7,0 km/h (2 Bft)
03.10.2008 02:00 7,7 C 84 % 1007,2 hPa 0,0 l/m SW 9,9 km/h (2 Bft)
03.10.2008 03:00 7,1 C 87 % 1006,9 hPa 0,0 l/m W 7,6 km/h (2 Bft)
03.10.2008 04:00 6,9 C 89 % 1007,0 hPa 0,0 l/m SW 7,8 km/h (2 Bft)
03.10.2008 05:00 6,9 C 89 % 1006,9 hPa 0,0 l/m S-SW 4,0 km/h (1 Bft)
03.10.2008 06:00 6,7 C 90 % 1006,8 hPa 0,0 l/m N 1,1 km/h (0 Bft)
03.10.2008 07:00 6,4 C 91 % 1006,8 hPa 0,0 l/m N 0,3 km/h (0 Bft)
03.10.2008 08:00 6,4 C 94 % 1007,1 hPa 0,2 l/m O-SO 2,4 km/h (1 Bft)
03.10.2008 09:00 6,7 C 91 % 1007,9 hPa 0,4 l/m W 5,3 km/h (1 Bft)
03.10.2008 10:00 7,1 C 90 % 1008,7 hPa 0,0 l/m W-NW 7,1 km/h (2 Bft)
03.10.2008 11:00 7,6 C 87 % 1008,9 hPa 0,0 l/m W 10,6 km/h (2 Bft)
03.10.2008 12:00 8,0 C 83 % 1009,2 hPa 0,0 l/m SW 12,9 km/h (3 Bft)
03.10.2008 13:00 8,1 C 85 % 1009,6 hPa 0,0 l/m SW 20,8 km/h (4 Bft)
03.10.2008 14:00 8,2 C 82 % 1009,4 hPa 0,0 l/m W-NW 17,2 km/h (3 Bft)
03.10.2008 15:00 7,8 C 84 % 1009,9 hPa 2,0 l/m W 10,7 km/h (2 Bft)
03.10.2008 16:00 6,6 C 90 % 1010,1 hPa 0,2 l/m SW 9,2 km/h (2 Bft)
03.10.2008 17:00 7,3 C 88 % 1010,4 hPa 0,0 l/m SW 18,5 km/h (3 Bft)
03.10.2008 18:00 6,9 C 88 % 1010,7 hPa 0,0 l/m SW 17,3 km/h (3 Bft)
03.10.2008 19:00 6,0 C 89 % 1010,8 hPa 0,0 l/m SW 9,6 km/h (2 Bft)
03.10.2008 20:00 5,0 C 91 % 1011,1 hPa 0,0 l/m SW 10,3 km/h (2 Bft)
03.10.2008 21:00 4,4 C 92 % 1011,7 hPa 0,0 l/m W-SW 7,6 km/h (2 Bft)
03.10.2008 22:00 4,2 C 93 % 1012,3 hPa 0,0 l/m S 6,3 km/h (2 Bft)
03.10.2008 23:00 3,6 C 93 % 1012,3 hPa 0,0 l/m SW 6,0 km/h (2 Bft)
04.10.2008 00:00 3,5 C 96 % 1012,5 hPa 0,0 l/m SW 10,6 km/h (2 Bft)
04.10.2008 01:00 4,3 C 96 % 1012,8 hPa 0,0 l/m SW 11,6 km/h (2 Bft)
04.10.2008 02:00 4,6 C 93 % 1013,1 hPa 0,0 l/m W 12,2 km/h (2 Bft)
04.10.2008 03:00 4,7 C 91 % 1013,6 hPa 0,0 l/m W 14,4 km/h (3 Bft)
04.10.2008 04:00 4,4 C 90 % 1013,9 hPa 0,0 l/m SW 13,4 km/h (3 Bft)
04.10.2008 05:00 4,0 C 92 % 1014,2 hPa 0,0 l/m W-SW 15,2 km/h (3 Bft)
04.10.2008 06:00 4,7 C 91 % 1014,5 hPa 0,0 l/m W 15,0 km/h (3 Bft)
04.10.2008 07:00 4,8 C 90 % 1014,9 hPa 0,2 l/m W 16,5 km/h (3 Bft)
04.10.2008 08:00 4,7 C 91 % 1015,5 hPa 0,0 l/m W 16,9 km/h (3 Bft)
04.10.2008 09:00 4,9 C 92 % 1016,5 hPa 0,4 l/m W-SW 15,7 km/h (3 Bft)
04.10.2008 10:00 5,4 C 92 % 1017,4 hPa 0,0 l/m W 14,1 km/h (3 Bft)
04.10.2008 11:00 6,3 C 88 % 1018,2 hPa 0,0 l/m W-NW 17,6 km/h (3 Bft)
04.10.2008 12:00 7,5 C 84 % 1018,9 hPa 0,0 l/m NW 16,1 km/h (3 Bft)
04.10.2008 13:00 7,7 C 81 % 1019,0 hPa 0,0 l/m W 17,4 km/h (3 Bft)
04.10.2008 14:00 8,7 C 76 % 1018,9 hPa 0,0 l/m W 18,8 km/h (3 Bft)
04.10.2008 15:00 7,7 C 83 % 1019,3 hPa 0,0 l/m N-NW 14,9 km/h (3 Bft)
04.10.2008 16:00 6,5 C 90 % 1019,6 hPa 0,6 l/m W-NW 7,4 km/h (2 Bft)
04.10.2008 17:00 6,9 C 87 % 1019,7 hPa 0,0 l/m N-NW 7,6 km/h (2 Bft)
04.10.2008 18:00 6,7 C 89 % 1020,1 hPa 0,0 l/m SW 2,7 km/h (1 Bft)
04.10.2008 19:00 6,4 C 91 % 1020,6 hPa 0,0 l/m SW 6,0 km/h (2 Bft)
04.10.2008 20:00 5,8 C 92 % 1021,1 hPa 0,0 l/m S-SW 9,5 km/h (2 Bft)
04.10.2008 21:00 4,9 C 91 % 1021,3 hPa 0,0 l/m SW 6,5 km/h (2 Bft)
04.10.2008 22:00 3,9 C 93 % 1021,3 hPa 0,0 l/m SW 8,4 km/h (2 Bft)
04.10.2008 23:00 3,3 C 95 % 1020,8 hPa 0,0 l/m S-SW 7,5 km/h (2 Bft)
05.10.2008 00:00 3,0 C 96 % 1020,4 hPa 0,0 l/m S-SW 7,4 km/h (2 Bft)
05.10.2008 01:00 2,7 C 96 % 1020,1 hPa 0,0 l/m S 2,7 km/h (1 Bft)
05.10.2008 02:00 2,3 C 95 % 1019,9 hPa 0,0 l/m SW 3,2 km/h (1 Bft)
05.10.2008 03:00 1,5 C 95 % 1019,4 hPa 0,0 l/m S 5,1 km/h (1 Bft)
05.10.2008 04:00 2,2 C 98 % 1018,8 hPa 0,0 l/m SW 11,4 km/h (2 Bft)
05.10.2008 05:00 2,8 C 98 % 1018,3 hPa 0,0 l/m SW 7,1 km/h (2 Bft)
05.10.2008 06:00 2,6 C 98 % 1017,9 hPa 0,0 l/m SW 7,4 km/h (2 Bft)
05.10.2008 07:00 2,3 C 98 % 1017,7 hPa 0,0 l/m SW 10,2 km/h (2 Bft)
05.10.2008 08:00 2,8 C 98 % 1017,8 hPa 0,0 l/m S-SW 7,2 km/h (2 Bft)
05.10.2008 09:00 3,7 C 97 % 1017,6 hPa 0,0 l/m S-SO 9,3 km/h (2 Bft)
05.10.2008 10:00 5,4 C 93 % 1017,3 hPa 0,0 l/m S-SW 19,7 km/h (3 Bft)
05.10.2008 11:00 8,6 C 80 % 1016,8 hPa 0,0 l/m S-SW 19,3 km/h (3 Bft)
05.10.2008 12:00 10,4 C 64 % 1016,1 hPa 0,0 l/m SW 24,9 km/h (4 Bft)
05.10.2008 13:00 11,1 C 58 % 1015,4 hPa 0,0 l/m W 24,5 km/h (4 Bft)
05.10.2008 14:00 11,8 C 57 % 1014,7 hPa 0,0 l/m SW 23,7 km/h (4 Bft)
05.10.2008 15:00 11,8 C 56 % 1014,0 hPa 0,0 l/m W 23,9 km/h (4 Bft)
05.10.2008 16:00 12,2 C 54 % 1013,6 hPa 0,0 l/m W 19,2 km/h (3 Bft)
05.10.2008 17:00 11,4 C 53 % 1013,4 hPa 0,0 l/m SW 16,9 km/h (3 Bft)
05.10.2008 18:00 10,1 C 63 % 1013,3 hPa 0,0 l/m SW 11,5 km/h (2 Bft)
05.10.2008 19:00 9,2 C 69 % 1013,3 hPa 0,0 l/m SW 15,0 km/h (3 Bft)
05.10.2008 20:00 8,9 C 69 % 1013,3 hPa 0,0 l/m SW 15,7 km/h (3 Bft)
05.10.2008 21:00 9,6 C 70 % 1013,5 hPa 0,0 l/m SW 16,9 km/h (3 Bft)
05.10.2008 22:00 9,6 C 73 % 1013,7 hPa 0,0 l/m SW 13,3 km/h (3 Bft)
05.10.2008 23:00 9,2 C 75 % 1013,6 hPa 0,0 l/m SW 11,2 km/h (2 Bft)
Min-Datum _ 05.10.08 05.10.08 02.10.08 - - 29.09.08
_ Min-Zeit 03:35 17:25 16:55 - - 00:10
Minimum _ 1,3 C 50 % 1005,9 hPa - - 0,0 km/h (0 Bft)
Max-Datum _ 29.09.08 29.09.08 29.09.08 03.10.08 - 01.10.08
_ Max-Zeit 14:55 09:30 00:25 15:40 - 13:45
Maximum _ 15,4 C 99 % 1023,3 hPa 2,0 l/m - 57,9 km/h
W (7 Bft)
Durchschnitt _ 8,8 C 83 % 1012,9 hPa #4,8 l/m W 14,9 km/h (3 Bft)